Time;durP1;ratioP1;P1;durP2;ratioP2;P2;SDS_P1;SDS_P2;PMS_P1;PMS_P2;Temp;Humidity;BMP_temperature;BMP_pressure;BME280_temperature;BME280_humidity;BME280_pressure;Samples;Min_cycle;Max_cycle;Signal;HPM_P1;HPM_P2
2023/09/03 00:00:54;;;;;;;12.40;5.20;;;;;;;14.33;100.00;98456.39;106814;1278;22854;-82
2023/09/03 00:03:42;;;;;;;10.20;4.90;;;;;;;14.28;100.00;98456.58;107010;1278;22529;-82
2023/09/03 00:06:11;;;;;;;9.60;6.00;;;;;;;14.23;100.00;98459.80;107020;1278;22563;-82
2023/09/03 00:08:38;;;;;;;7.90;5.20;;;;;;;14.17;100.00;98462.21;106865;1279;24231;-82
2023/09/03 00:11:06;;;;;;;9.50;5.50;;;;;;;14.09;100.00;98461.42;106824;1278;22531;-83
2023/09/03 00:13:34;;;;;;;7.00;5.80;;;;;;;14.03;100.00;98463.84;106944;1279;22523;-82
2023/09/03 00:16:03;;;;;;;7.00;5.50;;;;;;;13.99;100.00;98458.30;106949;1278;22690;-82
2023/09/03 00:18:32;;;;;;;9.40;6.70;;;;;;;13.94;100.00;98458.55;106791;1278;22618;-83
2023/09/03 00:21:05;;;;;;;7.70;5.50;;;;;;;13.86;100.00;98459.62;107254;1278;22493;-81
2023/09/03 00:23:33;;;;;;;8.30;5.40;;;;;;;13.82;100.00;98460.48;107183;1278;22531;-81
2023/09/03 00:26:02;;;;;;;10.90;5.80;;;;;;;13.74;100.00;98458.59;106799;1278;24374;-82
2023/09/03 00:28:30;;;;;;;13.00;6.00;;;;;;;13.69;100.00;98451.36;106823;1275;194343;-81
2023/09/03 00:31:08;;;;;;;6.50;5.70;;;;;;;13.67;100.00;98449.44;106996;1278;22524;-82
2023/09/03 00:33:37;;;;;;;10.50;6.10;;;;;;;13.63;100.00;98449.52;106867;1278;24360;-82
2023/09/03 00:36:08;;;;;;;9.90;6.20;;;;;;;13.59;100.00;98448.33;106912;1278;25393;-82
2023/09/03 00:38:39;;;;;;;8.10;5.70;;;;;;;13.55;100.00;98446.57;106947;1278;23201;-82
2023/09/03 00:41:07;;;;;;;12.40;7.00;;;;;;;13.53;100.00;98446.55;106901;1278;22527;-82
2023/09/03 00:43:35;;;;;;;8.00;5.90;;;;;;;13.49;100.00;98443.52;106810;1278;25511;-84
2023/09/03 00:46:05;;;;;;;11.40;6.30;;;;;;;13.42;100.00;98441.87;106807;1261;22632;-82
2023/09/03 00:48:35;;;;;;;8.90;6.30;;;;;;;13.34;100.00;98443.84;106850;1278;22970;-82
2023/09/03 00:51:08;;;;;;;12.10;7.00;;;;;;;13.28;100.00;98442.65;106723;1279;23441;-82
2023/09/03 00:53:38;;;;;;;10.10;6.50;;;;;;;13.25;100.00;98445.85;106805;1278;22584;-82
2023/09/03 00:56:10;;;;;;;10.10;6.80;;;;;;;13.24;100.00;98442.29;106778;1278;22615;-81
2023/09/03 00:58:40;;;;;;;9.00;7.50;;;;;;;13.23;100.00;98441.99;106806;1278;25397;-82
2023/09/03 01:01:09;;;;;;;13.00;7.70;;;;;;;13.23;100.00;98440.46;106811;1278;25242;-82
2023/09/03 01:03:37;;;;;;;9.30;7.90;;;;;;;13.18;100.00;98442.61;106910;1279;22550;-82
2023/09/03 01:06:06;;;;;;;20.60;7.50;;;;;;;13.13;100.00;98442.34;106857;1278;23380;-82
2023/09/03 01:08:35;;;;;;;9.90;7.10;;;;;;;13.09;100.00;98441.81;106946;1278;22536;-82
2023/09/03 01:11:16;;;;;;;10.20;6.70;;;;;;;13.07;100.00;98440.96;106935;1278;25471;-82
2023/09/03 01:13:58;;;;;;;10.40;6.50;;;;;;;13.05;100.00;98443.42;106923;1279;22535;-81
2023/09/03 01:16:36;;;;;;;10.30;6.00;;;;;;;13.03;100.00;98443.18;109521;1278;22557;-82
2023/09/03 01:19:21;;;;;;;8.80;7.30;;;;;;;13.01;100.00;98446.21;109430;1278;22614;-82
2023/09/03 01:22:03;;;;;;;10.20;6.40;;;;;;;13.04;100.00;98448.30;109926;1278;22559;-82
2023/09/03 01:24:58;;;;;;;12.10;6.20;;;;;;;13.05;100.00;98450.13;108728;1278;24286;-82
2023/09/03 01:27:46;;;;;;;12.80;7.50;;;;;;;13.10;100.00;98453.70;106936;1278;23046;-82
2023/09/03 01:30:15;;;;;;;12.90;6.40;;;;;;;13.13;100.00;98454.52;106908;1278;22773;-82
2023/09/03 01:32:49;;;;;;;11.40;7.00;;;;;;;13.15;100.00;98455.03;106906;1278;22632;-82
2023/09/03 01:35:19;;;;;;;8.60;6.40;;;;;;;13.12;100.00;98451.33;107001;1275;22530;-82
2023/09/03 01:37:47;;;;;;;8.50;5.80;;;;;;;13.12;100.00;98450.80;106903;1278;22595;-81
2023/09/03 01:40:15;;;;;;;8.60;6.20;;;;;;;13.14;100.00;98450.05;106907;1278;22525;-82
2023/09/03 01:42:43;;;;;;;10.50;7.40;;;;;;;13.17;100.00;98455.36;106820;1278;24239;-82
2023/09/03 01:45:11;;;;;;;8.40;7.30;;;;;;;13.16;100.00;98448.98;106871;1278;22570;-82
2023/09/03 01:48:08;;;;;;;11.70;7.80;;;;;;;13.13;100.00;98448.62;106965;1278;25400;-82
2023/09/03 01:51:03;;;;;;;9.80;7.30;;;;;;;13.14;100.00;98447.13;107008;1278;23417;-82
2023/09/03 01:53:43;;;;;;;10.50;7.10;;;;;;;13.20;100.00;98443.70;106853;1278;24322;-82
2023/09/03 01:56:14;;;;;;;7.90;6.10;;;;;;;13.23;100.00;98445.55;106844;1278;24387;-82
2023/09/03 01:58:49;;;;;;;8.70;6.40;;;;;;;13.22;100.00;98442.05;106811;1279;26512;-84
2023/09/03 02:01:18;;;;;;;10.90;6.70;;;;;;;13.21;100.00;98439.20;106836;1278;24380;-82
2023/09/03 02:03:50;;;;;;;9.60;6.70;;;;;;;13.21;100.00;98438.07;107029;1278;22531;-82
2023/09/03 02:06:18;;;;;;;8.20;6.60;;;;;;;13.22;100.00;98434.06;106871;1278;22535;-82
2023/09/03 02:08:46;;;;;;;13.60;7.10;;;;;;;13.21;100.00;98430.87;106963;1278;24412;-82
2023/09/03 02:11:13;;;;;;;9.90;6.90;;;;;;;13.19;100.00;98426.52;106854;1278;25668;-83
2023/09/03 02:13:41;;;;;;;11.00;6.70;;;;;;;13.21;100.00;98423.23;106874;1278;25339;-82
2023/09/03 02:16:09;;;;;;;9.60;6.90;;;;;;;13.21;100.00;98421.66;106877;1279;25498;-83
2023/09/03 02:18:37;;;;;;;8.20;7.30;;;;;;;13.16;100.00;98417.38;107227;1279;22632;-83
2023/09/03 02:21:05;;;;;;;11.60;8.00;;;;;;;13.11;100.00;98412.99;106824;1279;24040;-82
2023/09/03 02:23:33;;;;;;;9.50;7.10;;;;;;;13.08;100.00;98408.03;106859;1278;25313;-83
2023/09/03 02:26:02;;;;;;;11.50;7.00;;;;;;;13.07;100.00;98405.57;106827;1278;23998;-81
2023/09/03 02:28:30;;;;;;;11.30;7.20;;;;;;;13.03;100.00;98409.86;106782;1279;23115;-82
2023/09/03 02:30:58;;;;;;;9.30;6.80;;;;;;;13.00;100.00;98411.77;106897;1278;22780;-83
2023/09/03 02:33:28;;;;;;;7.40;6.30;;;;;;;12.99;100.00;98402.05;106956;1279;23267;-83
2023/09/03 02:35:56;;;;;;;11.20;7.00;;;;;;;13.00;100.00;98400.84;106972;1278;24262;-81
2023/09/03 02:38:24;;;;;;;11.00;7.10;;;;;;;12.97;100.00;98398.84;106955;1278;22537;-82
2023/09/03 02:40:52;;;;;;;8.60;6.80;;;;;;;12.95;100.00;98395.46;106920;1279;22654;-83
2023/09/03 02:43:20;;;;;;;11.90;7.70;;;;;;;12.93;100.00;98397.14;106972;1279;22821;-83
2023/09/03 02:45:48;;;;;;;8.40;6.30;;;;;;;12.89;100.00;98404.25;106917;1279;22739;-83
2023/09/03 02:48:16;;;;;;;8.70;6.10;;;;;;;12.84;100.00;98405.71;106876;1274;22646;-82
2023/09/03 02:50:44;;;;;;;12.70;6.20;;;;;;;12.83;100.00;98410.48;106887;1278;23920;-83
2023/09/03 02:53:12;;;;;;;8.80;6.50;;;;;;;12.81;100.00;98407.33;106921;1279;25427;-82
2023/09/03 02:55:40;;;;;;;9.70;5.90;;;;;;;12.85;100.00;98404.88;106932;1279;25284;-82
2023/09/03 02:58:08;;;;;;;7.60;5.70;;;;;;;12.86;100.00;98408.79;106921;1278;22618;-82
2023/09/03 03:00:36;;;;;;;8.70;6.20;;;;;;;12.85;100.00;98409.91;106925;1278;22643;-82
2023/09/03 03:03:04;;;;;;;8.30;6.10;;;;;;;12.87;100.00;98408.47;106876;1279;24206;-82
2023/09/03 03:05:33;;;;;;;9.90;6.60;;;;;;;12.92;100.00;98410.02;106944;1272;22553;-82
2023/09/03 03:08:02;;;;;;;10.00;5.90;;;;;;;12.98;100.00;98410.66;106922;1279;22532;-83
2023/09/03 03:10:31;;;;;;;9.70;6.10;;;;;;;13.06;100.00;98408.17;106987;1279;24221;-83
2023/09/03 03:12:59;;;;;;;8.20;5.70;;;;;;;13.14;100.00;98411.21;106885;1279;24288;-82
2023/09/03 03:15:28;;;;;;;8.40;5.60;;;;;;;13.20;100.00;98411.63;106960;1278;22525;-82
2023/09/03 03:17:57;;;;;;;9.80;5.90;;;;;;;13.23;100.00;98407.83;106985;1279;22636;-82
2023/09/03 03:20:25;;;;;;;6.80;6.20;;;;;;;13.21;100.00;98405.92;106931;1278;22537;-82
2023/09/03 03:22:53;;;;;;;7.90;5.70;;;;;;;13.22;100.00;98406.06;106950;1278;22740;-82
2023/09/03 03:25:22;;;;;;;9.10;5.60;;;;;;;13.25;100.00;98406.39;106839;1278;22681;-82
2023/09/03 03:27:50;;;;;;;7.20;5.70;;;;;;;13.26;100.00;98405.73;107050;1278;22571;-82
2023/09/03 03:30:19;;;;;;;10.30;5.90;;;;;;;13.31;100.00;98405.97;106952;1277;22538;-82
2023/09/03 03:32:47;;;;;;;10.50;6.10;;;;;;;13.37;100.00;98404.36;106999;1278;22609;-82
2023/09/03 03:35:17;;;;;;;8.60;5.20;;;;;;;13.42;100.00;98413.17;106877;1277;22633;-81
2023/09/03 03:37:45;;;;;;;6.90;5.20;;;;;;;13.47;100.00;98413.66;106865;1278;24216;-82
2023/09/03 03:40:13;;;;;;;7.40;5.20;;;;;;;13.51;100.00;98412.00;106974;1278;22538;-82
2023/09/03 03:42:41;;;;;;;10.50;5.50;;;;;;;13.53;100.00;98407.35;106919;1266;22540;-82
2023/09/03 03:45:09;;;;;;;7.30;5.60;;;;;;;13.55;100.00;98409.42;107098;1277;25415;-83
2023/09/03 03:47:38;;;;;;;10.10;5.80;;;;;;;13.52;100.00;98418.96;107026;1278;22576;-83
2023/09/03 03:50:07;;;;;;;7.90;4.80;;;;;;;13.47;100.00;98422.16;106970;1260;22576;-83
2023/09/03 03:52:36;;;;;;;8.30;5.40;;;;;;;13.41;100.00;98417.20;107105;1278;22558;-82
2023/09/03 03:55:05;;;;;;;8.40;6.40;;;;;;;13.41;100.00;98412.66;107181;1278;25407;-82
2023/09/03 03:57:33;;;;;;;8.60;5.50;;;;;;;13.48;100.00;98413.91;108044;1277;24224;-82
2023/09/03 04:00:01;;;;;;;8.20;5.20;;;;;;;13.50;100.00;98411.27;107599;1278;25231;-83
2023/09/03 04:02:39;;;;;;;8.80;5.10;;;;;;;13.45;100.00;98408.89;107128;1278;25347;-83
2023/09/03 04:05:07;;;;;;;7.30;4.80;;;;;;;13.43;100.00;98406.46;107148;1278;22528;-82
2023/09/03 04:07:35;;;;;;;7.60;5.00;;;;;;;13.43;100.00;98406.88;107162;1277;22524;-81
2023/09/03 04:10:03;;;;;;;8.00;5.20;;;;;;;13.41;100.00;98407.14;107075;1278;22604;-82
2023/09/03 04:12:31;;;;;;;11.90;5.70;;;;;;;13.41;100.00;98411.30;106866;1278;22542;-82
2023/09/03 04:14:59;;;;;;;9.90;5.90;;;;;;;13.38;100.00;98417.38;107269;1278;22546;-82
2023/09/03 04:17:27;;;;;;;9.60;6.50;;;;;;;13.38;100.00;98411.27;106994;1260;22581;-82
2023/09/03 04:19:55;;;;;;;9.40;6.20;;;;;;;13.45;100.00;98406.83;107070;1278;25287;-82
2023/09/03 04:22:25;;;;;;;10.10;5.60;;;;;;;13.55;100.00;98405.97;107023;1278;25348;-82
2023/09/03 04:24:53;;;;;;;9.90;6.90;;;;;;;13.61;100.00;98412.53;106908;1278;26179;-82
2023/09/03 04:27:21;;;;;;;9.50;6.80;;;;;;;13.63;100.00;98413.58;106875;1278;22571;-83
2023/09/03 04:29:50;;;;;;;8.60;7.00;;;;;;;13.65;100.00;98413.38;107099;1278;22532;-82
2023/09/03 04:32:18;;;;;;;9.90;6.10;;;;;;;13.69;100.00;98417.57;106993;1277;25348;-82
2023/09/03 04:34:46;;;;;;;8.10;6.00;;;;;;;13.71;100.00;98418.56;106960;1278;22531;-82
2023/09/03 04:37:14;;;;;;;9.20;6.70;;;;;;;13.75;100.00;98421.55;107116;1278;24478;-82
2023/09/03 04:39:42;;;;;;;9.80;6.80;;;;;;;13.87;100.00;98422.66;106920;1278;22565;-82
2023/09/03 04:42:10;;;;;;;9.40;6.80;;;;;;;14.00;100.00;98424.03;107079;1277;22539;-82
2023/09/03 04:44:39;;;;;;;8.70;5.60;;;;;;;14.13;100.00;98431.89;106941;1277;22628;-82
2023/09/03 04:47:07;;;;;;;10.50;6.90;;;;;;;14.23;100.00;98437.95;107122;1277;23524;-82
2023/09/03 04:49:35;;;;;;;7.90;6.60;;;;;;;14.30;100.00;98443.40;106877;1275;22532;-82
2023/09/03 04:52:04;;;;;;;10.00;6.50;;;;;;;14.37;100.00;98456.95;107092;1278;22523;-82
2023/09/03 04:54:32;;;;;;;15.30;11.20;;;;;;;14.42;100.00;98465.73;107091;1278;22623;-82
2023/09/03 04:57:00;;;;;;;18.50;12.10;;;;;;;14.49;100.00;98461.74;106885;1278;25799;-82
2023/09/03 04:59:28;;;;;;;11.50;9.30;;;;;;;14.55;100.00;98460.05;106847;1278;22823;-82
2023/09/03 05:01:56;;;;;;;15.40;10.90;;;;;;;14.63;100.00;98464.28;107097;1278;25335;-82
2023/09/03 05:04:24;;;;;;;12.30;11.00;;;;;;;14.72;100.00;98464.27;107636;1278;24220;-81
2023/09/03 05:06:52;;;;;;;12.80;11.50;;;;;;;14.80;100.00;98462.05;109881;1277;23334;-81
2023/09/03 05:09:22;;;;;;;13.60;11.00;;;;;;;14.87;100.00;98463.05;109537;1277;24269;-82
2023/09/03 05:11:50;;;;;;;15.40;11.10;;;;;;;14.92;100.00;98462.46;109844;1278;22568;-82
2023/09/03 05:14:19;;;;;;;15.80;10.60;;;;;;;14.97;100.00;98455.66;108614;1277;22640;-81
2023/09/03 05:16:47;;;;;;;12.60;10.90;;;;;;;15.05;100.00;98458.80;107042;1278;22805;-82
2023/09/03 05:19:15;;;;;;;14.80;10.40;;;;;;;15.11;100.00;98465.77;107085;1278;24385;-82
2023/09/03 05:21:43;;;;;;;12.00;10.10;;;;;;;15.15;100.00;98462.65;107100;1260;24360;-82
2023/09/03 05:24:11;;;;;;;14.30;10.50;;;;;;;15.19;100.00;98458.09;106881;1278;22582;-82
2023/09/03 05:26:40;;;;;;;12.70;9.90;;;;;;;15.22;100.00;98448.94;106920;1278;22650;-82
2023/09/03 05:29:08;;;;;;;14.00;9.80;;;;;;;15.28;100.00;98441.29;106880;1268;22646;-82
2023/09/03 05:31:36;;;;;;;11.10;9.60;;;;;;;15.31;100.00;98445.69;106757;1278;25321;-82
2023/09/03 05:34:04;;;;;;;12.10;9.40;;;;;;;15.38;100.00;98439.90;106783;1278;25254;-82
2023/09/03 05:36:32;;;;;;;16.10;10.10;;;;;;;15.48;100.00;98437.38;106776;1278;24528;-82
2023/09/03 05:39:01;;;;;;;11.80;9.50;;;;;;;15.59;100.00;98443.50;106939;1278;23806;-83
2023/09/03 05:41:29;;;;;;;13.70;9.80;;;;;;;15.72;100.00;98447.77;106858;1278;22592;-82
2023/09/03 05:43:57;;;;;;;15.50;12.70;;;;;;;15.83;100.00;98453.45;106919;1278;22572;-82
2023/09/03 05:46:26;;;;;;;16.90;13.20;;;;;;;15.88;100.00;98458.62;106847;1278;24480;-82
2023/09/03 05:48:54;;;;;;;19.70;15.40;;;;;;;15.86;100.00;98460.27;106995;1278;24476;-82
2023/09/03 05:51:22;;;;;;;16.30;13.40;;;;;;;15.82;100.00;98458.64;106973;1278;22538;-81
2023/09/03 05:53:51;;;;;;;15.00;13.50;;;;;;;15.81;100.00;98449.56;106851;1278;22552;-82
2023/09/03 05:56:21;;;;;;;15.30;13.90;;;;;;;15.84;100.00;98446.05;106971;1278;22538;-82
2023/09/03 05:58:50;;;;;;;16.00;13.70;;;;;;;15.85;100.00;98447.08;107119;1278;22569;-81
2023/09/03 06:01:19;;;;;;;19.00;14.00;;;;;;;15.83;100.00;98449.90;107080;1278;25266;-82
2023/09/03 06:03:47;;;;;;;14.60;13.10;;;;;;;15.79;100.00;98459.72;107041;1278;24215;-81
2023/09/03 06:06:15;;;;;;;14.20;12.30;;;;;;;15.75;100.00;98444.41;106938;1278;22653;-82
2023/09/03 06:08:43;;;;;;;14.70;12.70;;;;;;;15.72;100.00;98445.75;106962;1278;25471;-82
2023/09/03 06:11:11;;;;;;;18.50;12.00;;;;;;;15.70;100.00;98450.83;107170;1278;23009;-83
2023/09/03 06:13:39;;;;;;;16.80;12.70;;;;;;;15.68;100.00;98447.75;106955;1279;24390;-84
2023/09/03 06:16:11;;;;;;;19.60;12.90;;;;;;;15.73;100.00;98444.25;107038;1278;22527;-83
2023/09/03 06:18:39;;;;;;;16.00;13.50;;;;;;;15.79;100.00;98445.14;106968;1278;22859;-83
2023/09/03 06:21:08;;;;;;;14.00;11.60;;;;;;;15.85;100.00;98444.19;106837;1278;22671;-83
2023/09/03 06:23:36;;;;;;;14.70;11.10;;;;;;;15.92;100.00;98448.43;107079;1278;24388;-83
2023/09/03 06:26:04;;;;;;;14.20;11.80;;;;;;;16.00;100.00;98452.98;106812;1278;24946;-83
2023/09/03 06:28:33;;;;;;;15.20;11.20;;;;;;;16.07;100.00;98454.53;107019;1278;24060;-82
2023/09/03 06:31:01;;;;;;;14.60;12.90;;;;;;;16.08;100.00;98459.55;107025;1277;25348;-82
2023/09/03 06:33:33;;;;;;;14.20;12.60;;;;;;;16.04;100.00;98461.38;107055;1277;22531;-83
2023/09/03 06:36:01;;;;;;;15.20;13.50;;;;;;;15.96;100.00;98460.02;107136;1278;22637;-83
2023/09/03 06:38:29;;;;;;;18.60;16.40;;;;;;;15.90;100.00;98462.09;107092;1277;25484;-82
2023/09/03 06:40:57;;;;;;;16.30;14.60;;;;;;;15.84;100.00;98472.82;107110;1277;22657;-83
2023/09/03 06:43:25;;;;;;;15.70;13.90;;;;;;;15.74;100.00;98476.82;107091;1277;22550;-83
2023/09/03 06:45:53;;;;;;;16.10;14.40;;;;;;;15.72;100.00;98476.65;107185;1277;22682;-81
2023/09/03 06:48:21;;;;;;;16.30;14.00;;;;;;;15.74;100.00;98484.34;107138;1277;22734;-83
2023/09/03 06:50:50;;;;;;;20.20;14.60;;;;;;;15.75;100.00;98491.91;107084;1278;24252;-82
2023/09/03 06:53:17;;;;;;;15.40;12.60;;;;;;;15.75;100.00;98490.73;106987;1278;23394;-82
2023/09/03 06:55:45;;;;;;;21.70;11.80;;;;;;;15.81;100.00;98489.77;107113;1277;24212;-82
2023/09/03 06:58:13;;;;;;;15.50;12.10;;;;;;;15.87;100.00;98486.33;107079;1278;23820;-82
2023/09/03 07:00:42;;;;;;;15.70;11.60;;;;;;;15.97;100.00;98478.37;106963;1277;23869;-83
2023/09/03 07:03:10;;;;;;;11.70;10.30;;;;;;;16.08;100.00;98480.38;107345;1277;22661;-83
2023/09/03 07:05:38;;;;;;;12.30;10.10;;;;;;;16.19;100.00;98491.31;108567;1278;24372;-82
2023/09/03 07:08:07;;;;;;;14.50;10.40;;;;;;;16.23;100.00;98496.02;108110;1278;25393;-82
2023/09/03 07:10:35;;;;;;;12.10;10.50;;;;;;;16.34;100.00;98490.66;107078;1277;24363;-83
2023/09/03 07:13:03;;;;;;;10.30;9.30;;;;;;;16.45;100.00;98486.06;107186;1277;22524;-84
2023/09/03 07:15:32;;;;;;;10.40;9.40;;;;;;;16.57;100.00;98478.91;106964;1278;25343;-84
2023/09/03 07:18:00;;;;;;;10.20;9.20;;;;;;;16.70;100.00;98481.11;107654;1278;25594;-83
2023/09/03 07:20:29;;;;;;;10.80;7.90;;;;;;;16.79;100.00;98488.91;106891;1277;22527;-83
2023/09/03 07:22:57;;;;;;;9.50;7.50;;;;;;;16.78;100.00;98486.11;107059;1278;22785;-81
2023/09/03 07:25:25;;;;;;;9.10;6.50;;;;;;;16.80;100.00;98489.31;107076;1277;25338;-83
2023/09/03 07:27:55;;;;;;;7.90;7.10;;;;;;;16.83;100.00;98492.92;107042;1277;22538;-83
2023/09/03 07:30:23;;;;;;;8.60;7.40;;;;;;;16.90;100.00;98498.91;107065;1278;23871;-83
2023/09/03 07:32:51;;;;;;;9.60;7.20;;;;;;;17.07;100.00;98506.67;107109;1277;25474;-83
2023/09/03 07:35:20;;;;;;;8.70;7.30;;;;;;;17.21;100.00;98505.02;107135;1257;23968;-83
2023/09/03 07:37:48;;;;;;;11.20;8.30;;;;;;;17.25;100.00;98509.18;107019;1278;24238;-83
2023/09/03 07:40:18;;;;;;;12.10;9.40;;;;;;;17.38;100.00;98511.50;107005;1278;22561;-84
2023/09/03 07:42:46;;;;;;;12.50;11.20;;;;;;;17.45;100.00;98510.39;107038;1273;24256;-84
2023/09/03 07:45:14;;;;;;;12.40;11.10;;;;;;;17.51;100.00;98515.14;107045;1278;22539;-84
2023/09/03 07:47:42;;;;;;;12.70;10.50;;;;;;;17.59;100.00;98519.78;107077;1277;22592;-84
2023/09/03 07:50:10;;;;;;;12.60;10.80;;;;;;;17.62;100.00;98525.30;107089;1277;22527;-82
2023/09/03 07:52:38;;;;;;;13.20;11.10;;;;;;;17.74;100.00;98523.98;107098;1277;22556;-82
2023/09/03 07:55:07;;;;;;;12.10;10.90;;;;;;;17.80;100.00;98529.53;107092;1278;24214;-83
2023/09/03 07:57:35;;;;;;;15.70;12.00;;;;;;;17.81;100.00;98533.36;106975;1278;24192;-82
2023/09/03 08:00:05;;;;;;;9.90;8.90;;;;;;;17.73;100.00;98532.16;107130;1278;25398;-83
2023/09/03 08:02:39;;;;;;;10.40;8.60;;;;;;;17.70;100.00;98538.38;107100;1278;22530;-83
2023/09/03 08:05:11;;;;;;;10.80;8.60;;;;;;;17.75;100.00;98540.43;107018;1277;22569;-83
2023/09/03 08:07:40;;;;;;;8.80;7.90;;;;;;;17.82;100.00;98545.80;107072;1278;23909;-82
2023/09/03 08:10:09;;;;;;;11.10;8.50;;;;;;;17.91;100.00;98550.27;107070;1278;25284;-82
2023/09/03 08:12:37;;;;;;;9.00;7.10;;;;;;;17.92;100.00;98553.00;106925;1278;23452;-82
2023/09/03 08:15:06;;;;;;;10.40;7.80;;;;;;;17.86;100.00;98549.46;107095;1277;22547;-82
2023/09/03 08:17:35;;;;;;;10.40;7.60;;;;;;;17.92;100.00;98552.89;107090;1278;24353;-82
2023/09/03 08:20:03;;;;;;;10.30;8.20;;;;;;;18.05;100.00;98563.04;106972;1278;24228;-82
2023/09/03 08:22:34;;;;;;;11.30;9.30;;;;;;;18.07;100.00;98562.27;106905;1277;22683;-81
2023/09/03 08:25:02;;;;;;;11.20;9.60;;;;;;;18.18;100.00;98556.90;106953;1278;22959;-82
2023/09/03 08:27:30;;;;;;;14.20;11.00;;;;;;;18.28;100.00;98548.16;106892;1277;22527;-81
2023/09/03 08:29:58;;;;;;;12.20;10.70;;;;;;;18.35;100.00;98549.27;107063;1278;23407;-81
2023/09/03 08:32:29;;;;;;;14.10;11.00;;;;;;;18.38;100.00;98544.30;107078;1278;22534;-82
2023/09/03 08:34:57;;;;;;;12.90;10.90;;;;;;;18.33;100.00;98548.67;107138;1277;25410;-83
2023/09/03 08:37:26;;;;;;;13.00;10.80;;;;;;;18.42;100.00;98551.38;107061;1277;22538;-82
2023/09/03 08:39:54;;;;;;;13.70;10.20;;;;;;;18.37;99.96;98553.64;107104;1277;24353;-82
2023/09/03 08:42:23;;;;;;;11.90;10.20;;;;;;;18.35;100.00;98557.77;107002;1277;24063;-82
2023/09/03 08:44:55;;;;;;;13.90;11.10;;;;;;;18.38;100.00;98560.28;107030;1277;22517;-82
2023/09/03 08:47:25;;;;;;;12.60;10.80;;;;;;;18.39;99.73;98561.58;107004;1277;23193;-82
2023/09/03 08:49:53;;;;;;;14.00;10.60;;;;;;;18.46;99.66;98564.32;107047;1277;22578;-82
2023/09/03 08:52:22;;;;;;;13.20;11.30;;;;;;;18.58;99.29;98568.84;106921;1277;24384;-82
2023/09/03 08:54:51;;;;;;;13.10;10.70;;;;;;;18.64;97.62;98568.55;107706;1277;23873;-81
2023/09/03 08:57:19;;;;;;;12.10;10.00;;;;;;;18.65;97.23;98565.95;109436;1262;22563;-81
2023/09/03 08:59:47;;;;;;;13.70;11.10;;;;;;;18.63;98.10;98567.04;108801;1278;24279;-81
2023/09/03 09:02:17;;;;;;;14.10;10.70;;;;;;;18.65;97.22;98563.29;109290;1278;25365;-82
2023/09/03 09:04:47;;;;;;;14.20;10.50;;;;;;;18.69;97.36;98566.84;108883;1277;22560;-81
2023/09/03 09:07:18;;;;;;;12.20;9.90;;;;;;;18.89;98.99;98564.30;108446;1277;22532;-81
2023/09/03 09:09:50;;;;;;;11.50;9.90;;;;;;;19.11;97.29;98563.33;107925;1277;22772;-81
2023/09/03 09:12:24;;;;;;;14.00;9.00;;;;;;;19.15;96.75;98561.74;106999;1277;25452;-82
2023/09/03 09:15:03;;;;;;;14.50;9.00;;;;;;;19.26;97.18;98563.37;107035;1277;22528;-81
2023/09/03 09:17:39;;;;;;;15.20;9.30;;;;;;;19.32;95.31;98559.66;107097;1277;22523;-81
2023/09/03 09:20:09;;;;;;;10.80;8.80;;;;;;;19.30;95.70;98566.71;107021;1273;22534;-81
2023/09/03 09:22:44;;;;;;;10.00;8.00;;;;;;;19.40;96.38;98562.90;107079;1278;24209;-81
2023/09/03 09:25:23;;;;;;;8.50;6.80;;;;;;;19.66;96.57;98558.44;107009;1277;22767;-81
2023/09/03 09:27:56;;;;;;;9.00;7.00;;;;;;;20.01;95.59;98556.86;107578;1277;22539;-81
2023/09/03 09:30:25;;;;;;;8.30;7.50;;;;;;;20.20;93.10;98554.84;107272;1277;22755;-82
2023/09/03 09:33:07;;;;;;;9.60;8.00;;;;;;;20.34;93.94;98556.44;107194;1277;23330;-82
2023/09/03 09:35:35;;;;;;;12.30;8.70;;;;;;;20.22;90.14;98558.19;106935;1278;23228;-82
2023/09/03 09:38:05;;;;;;;9.20;7.30;;;;;;;19.98;90.87;98554.98;106878;1277;24218;-82
2023/09/03 09:40:37;;;;;;;9.80;8.30;;;;;;;19.82;89.40;98562.30;106966;1277;25396;-82
2023/09/03 09:43:09;;;;;;;10.50;7.50;;;;;;;19.64;90.24;98563.29;107055;1277;22639;-82
2023/09/03 09:45:46;;;;;;;11.50;9.30;;;;;;;19.52;89.91;98564.61;107100;1277;25535;-82
2023/09/03 09:48:14;;;;;;;13.10;7.70;;;;;;;19.43;90.24;98559.34;107177;1278;22531;-82
2023/09/03 09:50:44;;;;;;;9.80;8.00;;;;;;;19.58;90.90;98553.50;106949;1277;23138;-82
2023/09/03 09:53:24;;;;;;;9.50;8.30;;;;;;;19.89;91.66;98546.52;107092;1277;22556;-82
2023/09/03 09:56:00;;;;;;;10.70;8.00;;;;;;;20.20;88.56;98542.56;107082;1277;22536;-82
2023/09/03 09:58:39;;;;;;;10.40;8.10;;;;;;;20.38;89.11;98539.66;107193;1277;22530;-82
2023/09/03 10:01:10;;;;;;;9.00;7.90;;;;;;;20.60;89.39;98535.92;106969;1278;25471;-83
2023/09/03 10:03:48;;;;;;;8.00;6.10;;;;;;;20.63;87.23;98536.33;107134;1277;24275;-82
2023/09/03 10:06:22;;;;;;;9.10;7.00;;;;;;;20.43;84.44;98539.86;107077;1278;23610;-82
2023/09/03 10:08:51;;;;;;;8.00;6.80;;;;;;;20.14;85.17;98540.36;107899;1277;22631;-81
2023/09/03 10:11:20;;;;;;;8.60;6.00;;;;;;;19.88;84.71;98549.99;107212;1278;24755;-82
2023/09/03 10:13:48;;;;;;;9.10;5.70;;;;;;;19.65;85.60;98552.02;106795;1278;25558;-82
2023/09/03 10:16:19;;;;;;;8.50;5.50;;;;;;;19.51;86.13;98552.73;107004;1277;26558;-83
2023/09/03 10:18:50;;;;;;;8.70;5.90;;;;;;;19.52;86.86;98544.94;107050;1277;24263;-83
2023/09/03 10:21:26;;;;;;;8.20;5.70;;;;;;;19.77;85.49;98535.52;106832;1277;22548;-81
2023/09/03 10:24:16;;;;;;;7.20;5.50;;;;;;;20.00;85.94;98534.23;107001;1277;22537;-83
2023/09/03 10:26:48;;;;;;;6.70;4.90;;;;;;;20.23;83.19;98542.27;107129;1278;22538;-81
2023/09/03 10:29:19;;;;;;;6.20;5.50;;;;;;;20.37;81.57;98542.58;107067;1277;22537;-81
2023/09/03 10:31:49;;;;;;;7.60;6.80;;;;;;;20.51;81.05;98536.82;107148;1277;22536;-82
2023/09/03 10:34:18;;;;;;;7.70;6.90;;;;;;;20.59;77.82;98530.34;107092;1277;23920;-82
2023/09/03 10:37:05;;;;;;;7.20;5.70;;;;;;;20.68;80.52;98527.77;107082;1278;22611;-82
2023/09/03 10:39:35;;;;;;;8.10;5.80;;;;;;;20.74;76.42;98533.62;107154;1277;23363;-82
2023/09/03 10:42:15;;;;;;;9.30;5.50;;;;;;;20.79;76.67;98531.95;107084;1278;25471;-82
2023/09/03 10:44:49;;;;;;;6.70;5.30;;;;;;;20.78;75.21;98532.95;107128;1277;23419;-82
2023/09/03 10:47:18;;;;;;;6.70;5.90;;;;;;;20.71;75.79;98532.67;107111;1278;24247;-83
2023/09/03 10:49:48;;;;;;;6.20;5.20;;;;;;;20.61;74.83;98540.39;107080;1277;22540;-83
2023/09/03 10:52:30;;;;;;;7.00;5.40;;;;;;;20.44;74.31;98547.33;106982;1277;25291;-82
2023/09/03 10:55:22;;;;;;;6.80;5.50;;;;;;;20.11;73.39;98549.95;107032;1277;25366;-82
2023/09/03 10:58:10;;;;;;;6.60;5.40;;;;;;;19.86;74.89;98549.46;107105;1277;24264;-82
2023/09/03 11:00:38;;;;;;;7.70;5.70;;;;;;;19.70;76.20;98546.02;107091;1277;22654;-82
2023/09/03 11:03:18;;;;;;;8.50;5.70;;;;;;;19.73;77.47;98542.34;107079;1277;22623;-82
2023/09/03 11:06:18;;;;;;;7.60;5.90;;;;;;;19.76;77.53;98542.67;107027;1277;23333;-81
2023/09/03 11:08:48;;;;;;;7.00;5.70;;;;;;;20.01;77.06;98540.90;107076;1278;24245;-82
2023/09/03 11:11:20;;;;;;;6.60;5.00;;;;;;;20.34;77.77;98546.17;107070;1277;22546;-83
2023/09/03 11:13:50;;;;;;;5.80;4.50;;;;;;;20.65;76.15;98541.60;107182;1277;25338;-82
2023/09/03 11:16:30;;;;;;;7.10;4.60;;;;;;;20.89;74.68;98535.82;107034;1277;22523;-82
2023/09/03 11:19:00;;;;;;;6.30;5.20;;;;;;;21.12;74.23;98532.42;106857;1277;22598;-82
2023/09/03 11:21:29;;;;;;;6.00;4.70;;;;;;;21.38;73.89;98530.56;107133;1277;23966;-82
2023/09/03 11:24:16;;;;;;;7.70;5.00;;;;;;;21.64;72.24;98532.53;106968;1277;25409;-83
2023/09/03 11:26:45;;;;;;;6.70;5.00;;;;;;;21.84;71.09;98531.25;106974;1277;24513;-82